METAR Data
IDs: Format: Raw Decoded Include TAF

Data at: 0212 UTC 20 Jan 2022

KHLN 200153Z 23004KT 9SM CLR M09/M14 A3032 RMK AO2 SLP351 T10941139

KHLN 192334Z 2000/2024 VRB06KT P6SM SCT060 SCT120
  FM201400 VRB06KT P6SM VCSH BKN060
  FM202300 26009KT P6SM VCSH SCT035 OVC060


KBIL 200153Z 00000KT 10SM CLR M17/M21 A3035 RMK AO2 SLP358 T11671206

KBIL 192333Z 2000/2024 06006KT P6SM FEW080
  FM200200 22010KT P6SM FEW100
  FM201000 23018G26KT P6SM SCT120 BKN200


KBZN 200156Z 00000KT 10SM OVC060 M12/M13 A3032 RMK AO2 SLP346 I1000 T11171133

KBZN 192334Z 2000/2106 VRB06KT P6SM SCT060 SCT200
  TEMPO 2000/2004 BKN060
  FM201400 VRB06KT P6SM VCSH SCT035 BKN050
  PROB30 2020/2102 2SM -SN BR OVC025
  FM210300 32008KT P6SM VCSH SCT025 BKN050


KBTM 200153Z AUTO 14003KT 9SM OVC050 M06/M08 A3027 RMK AO2 SLP310 T10561083

KBTM 192340Z 2000/2024 00000KT P6SM BKN060
  FM200300 00000KT P6SM SKC
  FM201500 20006KT P6SM BKN050
  FM202200 21006KT P6SM -SHSN BKN050


KCTB 200156Z AUTO 14006KT 10SM CLR M18/M21 A3021 RMK AO2 SLP333 T11831206

KCTB 192334Z 2000/2024 14009KT P6SM FEW250
  FM200600 20009KT P6SM SCT250
  FM201200 25022G30KT P6SM BKN250 WS020/27040KT
  FM201700 25028G38KT P6SM VCSH SCT050 BKN090


KDLN 200153Z AUTO 00000KT 10SM OVC060 M06/M09 A3027 RMK AO2 SLP321 T10611089
No TAF found for KDLN

KGGW 200153Z AUTO 10011KT 10SM CLR M22/M26 A3050 RMK AO2 SLP406 T12221261

KGGW 192320Z 2000/2024 VRB06KT P6SM SKC
  FM201400 12010KT P6SM SKC


KGDV 200156Z AUTO 17003KT 10SM CLR M14/M21 A3054 RMK AO2 SLP412 T11391206 FZRANO

KGDV 192320Z 2000/2024 VRB06KT P6SM SKC
  FM201900 19010KT P6SM FEW200


KGPI 200155Z 21003KT 10SM OVC038 M02/M06 A3034 RMK AO2 SLP313 T10221061

KGPI 192340Z 2000/2024 00000KT P6SM OVC060
  FM200300 00000KT P6SM BKN020 OVC030
  FM200600 16003KT P6SM VCSH OVC020
  TEMPO 2006/2010 -SNDZ BKN006 OVC015
  FM201100 16003KT 1SM -SN BR BKN006 OVC015
  FM201800 16010KT 6SM -SNRA BKN009 OVC015
  FM202000 16010KT P6SM -RA OVC020


KGTF 200153Z 12005KT 10SM CLR M17/M19 A3025 RMK AO2 SLP339 T11721189 $

KGTF 192334Z 2000/2024 VRB06KT P6SM SKC
  FM200500 21009KT P6SM FEW060 BKN250
  FM201100 21018G26KT P6SM SCT060 BKN120
  FM201600 21026G34KT P6SM VCSH SCT050 BKN090


KLWT 200154Z AUTO 15005KT 10SM CLR M17/M19 A3025 RMK AO2 SLP341 T11671194

KLWT 192334Z 2000/2024 13006KT P6SM FEW060
  FM201200 21009KT P6SM SCT120 BKN250
  FM201700 24016G24KT P6SM VCSH BKN090
  FM202200 27020G28KT P6SM VCSH OVC050
  PROB30 2022/2024 4SM -RASN BR OVC025


KLVM 200153Z AUTO 31014KT 10SM CLR M12/M15 A3027 RMK AO2 SLP330 T11171150

KLVM 192333Z 2000/2024 28010KT P6SM FEW080 SCT200
  FM200600 23024G38KT P6SM DRSN BKN200
  FM201200 22034G48KT 4SM BLSN BKN120
  FM202000 22030G44KT P6SM BKN120


KMLS 200153Z AUTO 17005KT 10SM CLR M19/M23 A3050 RMK AO2 SLP399 T11891233

KMLS 192333Z 2000/2024 VRB05KT P6SM SKC
  FM200200 13006KT P6SM SKC
  FM202000 14012KT P6SM SCT120 BKN200


KMSO 200153Z 14003KT 10SM OVC065 00/M04 A3033 RMK AO2 SLP301 T00001044

KMSO 192340Z 2000/2024 12007KT P6SM OVC070
  FM201200 VRB03KT P6SM -SN OVC030
  FM201800 VRB03KT P6SM -SHRASN OVC040


KSDY 200156Z AUTO 36003KT 10SM CLR M19/M23 A3059 RMK AO2 SLP433 T11941233 FZRANO

KSDY 192320Z 2000/2024 VRB06KT P6SM FEW250
  FM201900 15009KT P6SM OVC250


KOLF 200153Z AUTO 02004KT 10SM CLR M26/M29 A3058 RMK AO2 SLP431 T12561294

KOLF 192320Z 2000/2024 VRB06KT P6SM SKC